createdAt,value
2019-03-23T00:01:18.603Z,34.80
2019-03-23T00:03:47.019Z,34.90
2019-03-23T00:06:15.435Z,34.80
2019-03-23T00:08:43.874Z,34.90
2019-03-23T00:11:12.298Z,34.90
2019-03-23T00:13:40.715Z,34.80
2019-03-23T00:16:09.152Z,34.80
2019-03-23T00:18:37.573Z,34.80
2019-03-23T00:21:05.987Z,34.90
2019-03-23T00:23:34.445Z,34.90
2019-03-23T00:26:02.841Z,34.80
2019-03-23T00:28:31.260Z,34.80
2019-03-23T00:30:59.691Z,34.80
2019-03-23T00:33:28.106Z,34.70
2019-03-23T00:35:56.523Z,34.70
2019-03-23T00:38:24.969Z,34.70
2019-03-23T00:40:53.651Z,35.10
2019-03-23T00:43:22.069Z,34.70
2019-03-23T00:45:50.515Z,34.60
2019-03-23T00:48:18.917Z,34.70
2019-03-23T00:50:47.332Z,34.60
2019-03-23T00:53:16.133Z,34.70
2019-03-23T00:55:44.552Z,34.70
2019-03-23T00:58:12.964Z,34.60
2019-03-23T01:00:41.411Z,34.50
2019-03-23T01:03:09.830Z,34.50
2019-03-23T01:05:38.256Z,34.50
2019-03-23T01:08:06.693Z,34.50
2019-03-23T01:10:35.120Z,34.50
2019-03-23T01:13:03.514Z,34.50
2019-03-23T01:15:31.961Z,35.10
2019-03-23T01:18:00.376Z,34.50
2019-03-23T01:20:28.782Z,34.50
2019-03-23T01:22:57.296Z,34.50
2019-03-23T01:25:25.882Z,34.40
2019-03-23T01:27:54.293Z,34.40
2019-03-23T01:30:22.737Z,34.40
2019-03-23T01:32:51.139Z,34.40
2019-03-23T01:35:19.553Z,34.40
2019-03-23T01:37:48.014Z,34.30
2019-03-23T01:40:16.433Z,34.30
2019-03-23T01:42:44.883Z,34.40
2019-03-23T01:45:13.955Z,34.40
2019-03-23T01:47:42.368Z,34.30
2019-03-23T01:50:11.617Z,34.30
2019-03-23T01:52:40.077Z,34.30
2019-03-23T01:55:08.760Z,34.30
2019-03-23T01:57:37.173Z,34.30
2019-03-23T02:00:10.713Z,34.20
2019-03-23T02:02:39.128Z,34.10
2019-03-23T02:05:08.498Z,34.30
2019-03-23T02:07:37.048Z,34.20
2019-03-23T02:10:07.856Z,34.20
2019-03-23T02:12:36.301Z,34.20
2019-03-23T02:15:07.264Z,34.20
2019-03-23T02:17:35.677Z,34.10
2019-03-23T02:20:09.585Z,34.10
2019-03-23T02:22:38.296Z,34.10
2019-03-23T02:25:07.347Z,34.10
2019-03-23T02:27:35.769Z,34.10
2019-03-23T02:30:05.841Z,34.10
2019-03-23T02:32:34.243Z,34.10
2019-03-23T02:35:02.661Z,34.10
2019-03-23T02:37:31.091Z,34.20
2019-03-23T02:39:59.509Z,34.00
2019-03-23T02:42:27.931Z,34.10
2019-03-23T02:44:56.361Z,34.10
2019-03-23T02:47:24.774Z,34.00
2019-03-23T02:49:53.201Z,34.10
2019-03-23T02:52:21.625Z,34.10
2019-03-23T02:54:50.046Z,34.10
2019-03-23T02:57:18.443Z,34.00
2019-03-23T02:59:46.901Z,34.00
2019-03-23T03:02:15.297Z,34.00
2019-03-23T03:04:43.705Z,34.00
2019-03-23T03:07:12.152Z,34.00
2019-03-23T03:09:40.564Z,34.00
2019-03-23T03:12:08.963Z,34.00
2019-03-23T03:14:37.413Z,34.00
2019-03-23T03:17:06.198Z,34.00
2019-03-23T03:19:34.611Z,34.00
2019-03-23T03:22:03.069Z,33.90
2019-03-23T03:24:31.480Z,34.10
2019-03-23T03:26:59.889Z,33.90
2019-03-23T03:29:28.332Z,33.90
2019-03-23T03:31:56.764Z,34.00
2019-03-23T03:34:25.178Z,33.90
2019-03-23T03:36:53.611Z,33.90
2019-03-23T03:39:22.363Z,33.90
2019-03-23T03:41:50.773Z,33.80
2019-03-23T03:44:19.228Z,33.90
2019-03-23T03:46:49.145Z,33.90
2019-03-23T03:49:17.555Z,33.90
2019-03-23T03:51:46.004Z,33.80
2019-03-23T03:54:14.419Z,33.80
2019-03-23T03:56:42.842Z,33.80
2019-03-23T03:59:11.273Z,33.80
2019-03-23T04:01:39.692Z,34.50
2019-03-23T04:04:08.464Z,34.40
2019-03-23T04:06:36.915Z,33.80
2019-03-23T04:09:06.258Z,33.70
2019-03-23T04:11:34.667Z,33.80
2019-03-23T04:14:03.188Z,33.80
2019-03-23T04:16:31.599Z,34.40
2019-03-23T04:19:00.003Z,33.80
2019-03-23T04:21:28.452Z,33.80
2019-03-23T04:23:56.857Z,33.80
2019-03-23T04:26:25.260Z,33.70
2019-03-23T04:28:53.704Z,33.70
2019-03-23T04:31:22.122Z,33.60
2019-03-23T04:33:50.620Z,33.60
2019-03-23T04:36:19.059Z,33.60
2019-03-23T04:38:47.475Z,33.60
2019-03-23T04:41:15.896Z,33.60
2019-03-23T04:43:44.339Z,33.60
2019-03-23T04:46:12.750Z,34.00
2019-03-23T04:48:41.160Z,33.70
2019-03-23T04:51:09.604Z,33.60
2019-03-23T04:53:38.138Z,33.60
2019-03-23T04:56:06.560Z,33.60
2019-03-23T04:58:34.994Z,33.70
2019-03-23T05:01:04.411Z,33.60
2019-03-23T05:03:32.933Z,33.70
2019-03-23T05:06:01.375Z,33.70
2019-03-23T05:08:33.522Z,33.60
2019-03-23T05:10:59.889Z,33.60
2019-03-23T05:13:28.330Z,33.60
2019-03-23T05:15:56.738Z,33.50
2019-03-23T05:18:25.157Z,33.50
2019-03-23T05:20:53.579Z,33.80
2019-03-23T05:23:21.991Z,33.40
2019-03-23T05:25:50.399Z,33.40
2019-03-23T05:28:19.238Z,33.40
2019-03-23T05:30:47.655Z,33.60
2019-03-23T05:33:16.050Z,33.60
2019-03-23T05:35:44.488Z,33.50
2019-03-23T05:38:12.987Z,33.50
2019-03-23T05:40:41.402Z,33.50
2019-03-23T05:43:09.834Z,33.40
2019-03-23T05:45:38.258Z,33.40
2019-03-23T05:48:06.675Z,33.40
2019-03-23T05:50:35.108Z,33.40
2019-03-23T05:53:03.540Z,33.40
2019-03-23T05:55:31.939Z,33.40
2019-03-23T05:58:00.472Z,33.50
2019-03-23T06:00:28.892Z,33.40
2019-03-23T06:02:57.303Z,33.40
2019-03-23T06:05:25.735Z,33.40
2019-03-23T06:07:54.145Z,33.30
2019-03-23T06:10:22.556Z,33.40
2019-03-23T06:12:51.666Z,33.30
2019-03-23T06:15:20.074Z,33.40
2019-03-23T06:17:48.490Z,33.40
2019-03-23T06:20:16.943Z,33.30
2019-03-23T06:22:45.357Z,33.80
2019-03-23T06:25:13.783Z,34.00
2019-03-23T06:27:42.228Z,32.90
2019-03-23T06:30:11.378Z,33.30
2019-03-23T06:32:39.788Z,33.40
2019-03-23T06:35:08.890Z,33.30
2019-03-23T06:37:37.300Z,33.40
2019-03-23T06:40:08.975Z,33.30
2019-03-23T06:42:37.423Z,33.60
2019-03-23T06:45:08.431Z,33.40
2019-03-23T06:47:36.847Z,33.30
2019-03-23T06:50:06.660Z,33.30
2019-03-23T06:52:35.042Z,33.30
2019-03-23T06:55:07.346Z,33.20
2019-03-23T06:57:37.218Z,33.30
2019-03-23T07:00:15.927Z,33.40
2019-03-23T07:02:44.335Z,33.30
2019-03-23T07:05:12.922Z,33.20
2019-03-23T07:07:41.410Z,33.20
2019-03-23T07:10:12.228Z,33.20
2019-03-23T07:12:40.733Z,33.30
2019-03-23T07:15:19.480Z,33.20
2019-03-23T07:17:41.154Z,33.20
2019-03-23T07:20:13.765Z,33.30
2019-03-23T07:22:42.228Z,33.20
2019-03-23T07:25:11.491Z,33.40
2019-03-23T07:27:39.890Z,33.20
2019-03-23T07:30:11.435Z,32.70
2019-03-23T07:32:39.847Z,32.70
2019-03-23T07:35:08.276Z,32.80
2019-03-23T07:37:36.707Z,32.70
2019-03-23T07:40:07.516Z,32.30
2019-03-23T07:42:35.940Z,32.30
2019-03-23T07:45:07.191Z,32.50
2019-03-23T07:47:35.592Z,32.40
2019-03-23T07:50:07.106Z,32.50
2019-03-23T07:52:35.552Z,32.50
2019-03-23T07:55:14.226Z,32.60
2019-03-23T07:57:42.664Z,32.50
2019-03-23T08:00:16.225Z,32.50
2019-03-23T08:02:44.633Z,32.50
2019-03-23T08:05:13.079Z,32.50
2019-03-23T08:07:41.488Z,32.50
2019-03-23T08:10:09.966Z,32.50
2019-03-23T08:12:38.412Z,32.50
2019-03-23T08:15:08.453Z,32.60
2019-03-23T08:17:36.857Z,32.50
2019-03-23T08:20:06.428Z,32.70
2019-03-23T08:22:34.831Z,32.50
2019-03-23T08:25:04.099Z,33.00
2019-03-23T08:27:33.076Z,32.50
2019-03-23T08:30:01.467Z,32.60
2019-03-23T08:32:29.884Z,32.50
2019-03-23T08:34:58.313Z,32.50
2019-03-23T08:37:26.762Z,32.60
2019-03-23T08:39:55.131Z,32.60
2019-03-23T08:42:23.574Z,32.60
2019-03-23T08:44:51.981Z,32.60
2019-03-23T08:47:20.458Z,32.60
2019-03-23T08:49:48.895Z,32.60
2019-03-23T08:52:17.304Z,32.60
2019-03-23T08:54:45.715Z,32.60
2019-03-23T08:57:14.228Z,32.60
2019-03-23T08:59:42.639Z,32.60
2019-03-23T09:02:11.048Z,32.60
2019-03-23T09:04:39.498Z,32.70
2019-03-23T09:07:07.914Z,32.70
2019-03-23T09:09:36.328Z,32.70
2019-03-23T09:12:04.768Z,32.60
2019-03-23T09:14:33.174Z,32.60
2019-03-23T09:17:01.584Z,32.60
2019-03-23T09:19:30.017Z,32.60
2019-03-23T09:21:58.433Z,32.70
2019-03-23T09:24:26.855Z,32.60
2019-03-23T09:26:55.298Z,32.70
2019-03-23T09:29:23.880Z,32.70
2019-03-23T09:31:52.294Z,32.70
2019-03-23T09:34:20.735Z,32.60
2019-03-23T09:36:49.149Z,32.60
2019-03-23T09:39:17.571Z,32.60
2019-03-23T09:41:45.994Z,32.60
2019-03-23T09:44:14.409Z,32.60
2019-03-23T09:46:42.821Z,32.70
2019-03-23T09:49:11.842Z,32.70
2019-03-23T09:51:40.250Z,32.70
2019-03-23T09:54:08.662Z,32.70
2019-03-23T09:56:37.094Z,32.70
2019-03-23T09:59:05.714Z,32.70
2019-03-23T10:01:34.144Z,32.70
2019-03-23T10:04:02.574Z,32.70
2019-03-23T10:06:30.995Z,32.70
2019-03-23T10:08:59.411Z,32.70
2019-03-23T10:11:27.841Z,32.70
2019-03-23T10:13:56.256Z,33.40
2019-03-23T10:16:24.671Z,32.70
2019-03-23T10:18:53.110Z,32.70
2019-03-23T10:21:21.511Z,32.80
2019-03-23T10:23:49.919Z,32.70
2019-03-23T10:26:18.358Z,32.70
2019-03-23T10:28:46.823Z,33.40
2019-03-23T10:31:15.193Z,32.70
2019-03-23T10:33:43.633Z,32.70
2019-03-23T10:36:12.345Z,32.70
2019-03-23T10:38:40.862Z,32.70
2019-03-23T10:41:09.296Z,33.40
2019-03-23T10:43:39.069Z,32.70
2019-03-23T10:46:07.624Z,32.70
2019-03-23T10:48:36.056Z,32.80
2019-03-23T10:51:04.473Z,32.80
2019-03-23T10:53:33.247Z,32.80
2019-03-23T10:56:01.698Z,32.80
2019-03-23T10:58:30.115Z,32.80
2019-03-23T11:00:58.582Z,32.80
2019-03-23T11:03:27.334Z,32.70
2019-03-23T11:05:55.755Z,33.10
2019-03-23T11:08:24.158Z,33.00
2019-03-23T11:10:52.591Z,32.80
2019-03-23T11:13:21.001Z,32.80
2019-03-23T11:15:49.420Z,32.80
2019-03-23T11:18:17.855Z,32.70
2019-03-23T11:20:46.258Z,32.80
2019-03-23T11:23:14.688Z,32.80
2019-03-23T11:25:43.135Z,32.80
2019-03-23T11:28:11.542Z,32.90
2019-03-23T11:30:39.960Z,32.80
2019-03-23T11:33:08.395Z,32.80
2019-03-23T11:35:36.809Z,32.90
2019-03-23T11:38:05.240Z,32.90
2019-03-23T11:40:33.762Z,32.80
2019-03-23T11:43:02.189Z,32.90
2019-03-23T11:45:30.607Z,32.90
2019-03-23T11:47:59.049Z,32.90
2019-03-23T11:50:27.815Z,32.90
2019-03-23T11:52:56.619Z,32.90
2019-03-23T11:55:25.051Z,32.90
2019-03-23T11:57:53.465Z,32.90
2019-03-23T12:00:21.887Z,32.90
2019-03-23T12:02:50.676Z,32.90
2019-03-23T12:05:19.100Z,32.90
2019-03-23T12:07:47.513Z,32.90
2019-03-23T12:10:15.968Z,32.90
2019-03-23T12:12:44.412Z,32.90
2019-03-23T12:15:12.799Z,32.90
2019-03-23T12:17:41.243Z,32.90
2019-03-23T12:20:09.727Z,32.90
2019-03-23T12:22:38.147Z,32.90
2019-03-23T12:25:06.760Z,32.90
2019-03-23T12:27:35.184Z,32.90
2019-03-23T12:30:07.582Z,33.00
2019-03-23T12:32:34.755Z,32.90
2019-03-23T12:35:04.150Z,32.90
2019-03-23T12:37:32.555Z,32.90
2019-03-23T12:40:00.987Z,32.90
2019-03-23T12:42:29.395Z,32.90
2019-03-23T12:44:57.805Z,32.90
2019-03-23T12:47:26.235Z,33.00
2019-03-23T12:49:54.651Z,32.90
2019-03-23T12:52:23.050Z,32.90
2019-03-23T12:54:51.497Z,32.90
2019-03-23T12:57:19.904Z,32.90
2019-03-23T12:59:48.316Z,32.90
2019-03-23T13:02:16.755Z,33.00
2019-03-23T13:04:46.708Z,33.00
2019-03-23T13:07:15.122Z,33.10
2019-03-23T13:09:43.559Z,33.00
2019-03-23T13:12:11.975Z,33.10
2019-03-23T13:14:40.397Z,33.00
2019-03-23T13:17:08.836Z,33.00
2019-03-23T13:19:37.251Z,33.10
2019-03-23T13:22:05.660Z,33.30
2019-03-23T13:24:34.091Z,33.20
2019-03-23T13:27:02.515Z,33.30
2019-03-23T13:29:30.933Z,33.30
2019-03-23T13:31:59.671Z,33.30
2019-03-23T13:34:28.095Z,33.30
2019-03-23T13:36:58.490Z,33.20
2019-03-23T13:39:26.598Z,33.20
2019-03-23T13:41:55.015Z,33.00
2019-03-23T13:44:23.421Z,33.20
2019-03-23T13:46:51.880Z,33.10
2019-03-23T13:49:20.280Z,33.10
2019-03-23T13:51:48.692Z,33.10
2019-03-23T13:54:17.124Z,33.00
2019-03-23T13:56:45.547Z,32.60
2019-03-23T13:59:14.069Z,32.60
2019-03-23T14:01:42.507Z,33.00
2019-03-23T14:04:10.924Z,33.00
2019-03-23T14:06:39.455Z,32.80
2019-03-23T14:09:08.256Z,32.90
2019-03-23T14:11:36.662Z,32.80
2019-03-23T14:14:05.093Z,32.80
2019-03-23T14:16:33.526Z,32.90
2019-03-23T14:19:01.941Z,33.00
2019-03-23T14:21:30.364Z,32.90
2019-03-23T14:23:58.806Z,32.90
2019-03-23T14:26:27.216Z,32.90
2019-03-23T14:28:55.632Z,33.00
2019-03-23T14:31:24.063Z,33.00
2019-03-23T14:33:52.487Z,32.90
2019-03-23T14:36:20.896Z,33.10
2019-03-23T14:38:49.336Z,32.80
2019-03-23T14:41:17.743Z,32.90
2019-03-23T14:43:46.157Z,32.80
2019-03-23T14:46:15.448Z,32.60
2019-03-23T14:48:44.025Z,32.40
2019-03-23T14:51:12.437Z,32.40
2019-03-23T14:53:40.873Z,32.50
2019-03-23T14:56:09.282Z,32.60
2019-03-23T14:58:37.690Z,32.60
2019-03-23T15:01:06.146Z,32.60
2019-03-23T15:03:34.560Z,32.50
2019-03-23T15:06:02.967Z,32.60
2019-03-23T15:08:31.973Z,32.50
2019-03-23T15:11:01.089Z,32.60
2019-03-23T15:13:29.494Z,32.50
2019-03-23T15:15:57.936Z,32.60
2019-03-23T15:18:26.345Z,32.50
2019-03-23T15:20:54.752Z,32.60
2019-03-23T15:23:23.211Z,32.60
2019-03-23T15:25:51.624Z,32.70
2019-03-23T15:28:20.028Z,32.50
2019-03-23T15:30:48.466Z,32.60
2019-03-23T15:33:16.878Z,32.60
2019-03-23T15:35:45.288Z,32.60
2019-03-23T15:38:13.719Z,32.60
2019-03-23T15:40:42.136Z,32.50
2019-03-23T15:43:10.549Z,32.60
2019-03-23T15:45:38.990Z,32.60
2019-03-23T15:48:07.406Z,32.50
2019-03-23T15:50:35.807Z,32.50
2019-03-23T15:53:04.511Z,32.60
2019-03-23T15:55:32.926Z,32.50
2019-03-23T15:58:01.344Z,32.60
2019-03-23T16:00:29.786Z,32.50
2019-03-23T16:02:58.194Z,32.60
2019-03-23T16:05:26.616Z,32.50
2019-03-23T16:07:55.054Z,32.50
2019-03-23T16:10:23.479Z,33.10
2019-03-23T16:12:51.887Z,32.60
2019-03-23T16:15:20.327Z,32.50
2019-03-23T16:17:48.742Z,32.50
2019-03-23T16:20:17.329Z,32.50
2019-03-23T16:22:45.784Z,32.50
2019-03-23T16:25:14.194Z,32.50
2019-03-23T16:27:42.620Z,32.60
2019-03-23T16:30:11.568Z,32.50
2019-03-23T16:32:39.966Z,32.60
2019-03-23T16:35:08.450Z,32.50
2019-03-23T16:37:36.888Z,32.50
2019-03-23T16:40:08.147Z,32.50
2019-03-23T16:42:44.574Z,32.40
2019-03-23T16:45:08.767Z,32.40
2019-03-23T16:47:37.414Z,32.40
2019-03-23T16:50:07.870Z,32.20
2019-03-23T16:52:37.556Z,32.00
2019-03-23T16:55:08.758Z,32.30
2019-03-23T16:57:37.176Z,32.50
2019-03-23T17:00:07.166Z,32.60
2019-03-23T17:02:35.571Z,32.60
2019-03-23T17:05:05.228Z,32.70
2019-03-23T17:07:33.671Z,32.70
2019-03-23T17:10:02.089Z,32.70
2019-03-23T17:12:30.511Z,32.70
2019-03-23T17:14:58.938Z,32.80
2019-03-23T17:17:27.358Z,32.80
2019-03-23T17:19:55.774Z,32.70
2019-03-23T17:22:24.209Z,32.80
2019-03-23T17:24:52.622Z,32.80
2019-03-23T17:27:21.032Z,32.70
2019-03-23T17:29:49.479Z,32.80
2019-03-23T17:32:17.886Z,32.80
2019-03-23T17:34:46.631Z,32.80
2019-03-23T17:37:15.068Z,32.90
2019-03-23T17:39:43.477Z,32.80
2019-03-23T17:42:11.898Z,32.90
2019-03-23T17:44:40.331Z,32.80
2019-03-23T17:47:08.750Z,32.90
2019-03-23T17:49:37.635Z,32.90
2019-03-23T17:52:06.083Z,32.90
2019-03-23T17:54:34.478Z,32.90
2019-03-23T17:57:02.889Z,32.90
2019-03-23T17:59:31.342Z,32.90
2019-03-23T18:01:59.750Z,32.90
2019-03-23T18:04:28.174Z,33.00
2019-03-23T18:06:56.614Z,32.90
2019-03-23T18:09:25.022Z,33.00
2019-03-23T18:11:53.434Z,33.00
2019-03-23T18:14:22.066Z,33.00
2019-03-23T18:16:50.476Z,32.90
2019-03-23T18:19:18.906Z,32.90
2019-03-23T18:21:47.348Z,33.00
2019-03-23T18:24:15.760Z,33.00
2019-03-23T18:26:44.177Z,33.00
2019-03-23T18:29:12.616Z,33.00
2019-03-23T18:31:41.028Z,33.10
2019-03-23T18:34:09.443Z,33.00
2019-03-23T18:36:37.878Z,32.50
2019-03-23T18:39:06.301Z,33.10
2019-03-23T18:41:35.084Z,33.60
2019-03-23T18:44:03.507Z,33.10
2019-03-23T18:46:31.923Z,33.10
2019-03-23T18:49:00.327Z,33.10
2019-03-23T18:51:28.828Z,33.00
2019-03-23T18:53:57.253Z,33.00
2019-03-23T18:56:25.662Z,33.10
2019-03-23T18:58:54.097Z,33.00
2019-03-23T19:01:22.513Z,33.00
2019-03-23T19:03:51.317Z,33.00
2019-03-23T19:06:19.750Z,33.00
2019-03-23T19:08:48.191Z,33.00
2019-03-23T19:11:16.622Z,33.10
2019-03-23T19:13:45.065Z,32.90
2019-03-23T19:16:13.490Z,33.00
2019-03-23T19:18:41.896Z,32.90
2019-03-23T19:21:10.347Z,33.00
2019-03-23T19:23:38.757Z,32.90
2019-03-23T19:26:07.168Z,32.90
2019-03-23T19:28:35.616Z,32.90
2019-03-23T19:31:04.026Z,32.90
2019-03-23T19:33:32.447Z,33.00
2019-03-23T19:36:00.881Z,32.90
2019-03-23T19:38:29.293Z,32.90
2019-03-23T19:40:57.693Z,32.90
2019-03-23T19:43:26.147Z,32.90
2019-03-23T19:45:54.553Z,33.00
2019-03-23T19:48:22.968Z,33.00
2019-03-23T19:50:51.406Z,32.90
2019-03-23T19:53:19.816Z,33.10
2019-03-23T19:55:48.227Z,33.10
2019-03-23T19:58:16.677Z,33.00
2019-03-23T20:00:45.090Z,33.00
2019-03-23T20:03:13.498Z,33.00
2019-03-23T20:05:41.938Z,33.10
2019-03-23T20:08:10.365Z,33.20
2019-03-23T20:10:38.777Z,33.10
2019-03-23T20:13:07.232Z,33.20
2019-03-23T20:15:35.642Z,33.00
2019-03-23T20:18:04.432Z,33.10
2019-03-23T20:20:32.865Z,33.10
2019-03-23T20:23:01.282Z,33.10
2019-03-23T20:25:29.698Z,33.70
2019-03-23T20:27:58.149Z,33.20
2019-03-23T20:30:26.570Z,33.10
2019-03-23T20:32:54.991Z,33.20
2019-03-23T20:35:23.429Z,33.10
2019-03-23T20:37:51.842Z,33.20
2019-03-23T20:40:20.256Z,33.10
2019-03-23T20:42:48.712Z,33.00
2019-03-23T20:45:20.391Z,33.10
2019-03-23T20:47:48.805Z,33.20
2019-03-23T20:50:17.246Z,33.20
2019-03-23T20:52:45.654Z,33.30
2019-03-23T20:55:25.761Z,33.20
2019-03-23T20:57:54.613Z,33.20
2019-03-23T21:00:23.031Z,33.20
2019-03-23T21:02:51.463Z,33.30
2019-03-23T21:05:19.885Z,33.20
2019-03-23T21:07:48.294Z,33.20
2019-03-23T21:10:16.732Z,33.30
2019-03-23T21:12:45.887Z,33.80
2019-03-23T21:15:14.300Z,33.20
2019-03-23T21:17:51.078Z,33.20
2019-03-23T21:20:14.271Z,33.80
2019-03-23T21:22:42.700Z,33.30
2019-03-23T21:25:11.144Z,33.30
2019-03-23T21:27:39.551Z,33.30
2019-03-23T21:30:15.725Z,33.30
2019-03-23T21:32:44.151Z,33.20
2019-03-23T21:35:12.572Z,33.20
2019-03-23T21:37:41.607Z,33.60
2019-03-23T21:40:10.400Z,33.30
2019-03-23T21:42:38.815Z,33.20
2019-03-23T21:45:07.461Z,33.20
2019-03-23T21:47:35.916Z,33.30
2019-03-23T21:50:07.222Z,33.30
2019-03-23T21:52:35.711Z,33.20
2019-03-23T21:55:04.798Z,33.60
2019-03-23T21:57:33.215Z,33.30
2019-03-23T22:00:01.623Z,33.20
2019-03-23T22:02:30.061Z,32.80
2019-03-23T22:04:58.472Z,33.20
2019-03-23T22:07:26.884Z,33.30
2019-03-23T22:09:57.541Z,33.30
2019-03-23T22:12:25.367Z,33.20
2019-03-23T22:14:53.782Z,33.30
2019-03-23T22:17:22.218Z,33.30
2019-03-23T22:19:50.631Z,33.40
2019-03-23T22:22:19.039Z,33.30
2019-03-23T22:24:47.480Z,33.30
2019-03-23T22:27:15.892Z,33.20
2019-03-23T22:29:44.303Z,33.20
2019-03-23T22:32:12.751Z,33.20
2019-03-23T22:34:41.170Z,33.20
2019-03-23T22:37:09.599Z,33.30
2019-03-23T22:39:38.027Z,33.20
2019-03-23T22:42:06.432Z,33.30
2019-03-23T22:44:34.851Z,33.30
2019-03-23T22:47:03.294Z,33.20
2019-03-23T22:49:31.702Z,33.30
2019-03-23T22:52:00.126Z,33.30
2019-03-23T22:54:28.973Z,33.30
2019-03-23T22:56:57.388Z,33.20
2019-03-23T22:59:25.796Z,33.20
2019-03-23T23:01:54.774Z,33.20
2019-03-23T23:04:23.183Z,33.30
2019-03-23T23:06:51.592Z,33.30
2019-03-23T23:09:21.875Z,33.20
2019-03-23T23:11:50.247Z,33.20
2019-03-23T23:14:18.662Z,33.20
2019-03-23T23:16:47.107Z,33.20
2019-03-23T23:19:15.510Z,33.30
2019-03-23T23:21:44.150Z,33.30
2019-03-23T23:24:12.584Z,33.40
2019-03-23T23:26:40.991Z,33.30
2019-03-23T23:29:09.408Z,33.30
2019-03-23T23:31:37.846Z,33.30
2019-03-23T23:34:06.256Z,33.20
2019-03-23T23:36:34.749Z,33.20
2019-03-23T23:39:04.551Z,33.20
2019-03-23T23:41:32.966Z,33.20
2019-03-23T23:44:01.379Z,33.20
2019-03-23T23:46:29.830Z,33.20
2019-03-23T23:48:58.244Z,33.20
2019-03-23T23:51:26.646Z,33.20
2019-03-23T23:53:55.087Z,33.20
2019-03-23T23:56:23.494Z,33.20
2019-03-23T23:58:51.903Z,33.20
